sensor_id;sensor_type;location;lat;lon;timestamp;temperature;humidity
45837;DHT22;31548;51.420;-0.040;2023-02-28T00:01:26;4.00;99.90
45837;DHT22;31548;51.420;-0.040;2023-02-28T00:03:55;4.00;99.90
45837;DHT22;31548;51.420;-0.040;2023-02-28T00:06:23;3.90;99.90
45837;DHT22;31548;51.420;-0.040;2023-02-28T00:08:51;3.90;99.90
45837;DHT22;31548;51.420;-0.040;2023-02-28T00:11:18;3.90;99.90
45837;DHT22;31548;51.420;-0.040;2023-02-28T00:13:47;3.90;99.90
45837;DHT22;31548;51.420;-0.040;2023-02-28T00:16:18;3.90;99.90
45837;DHT22;31548;51.420;-0.040;2023-02-28T00:18:47;3.80;99.90
45837;DHT22;31548;51.420;-0.040;2023-02-28T00:21:15;3.80;99.90
45837;DHT22;31548;51.420;-0.040;2023-02-28T00:23:43;3.80;99.90
45837;DHT22;31548;51.420;-0.040;2023-02-28T00:26:11;3.80;99.90
45837;DHT22;31548;51.420;-0.040;2023-02-28T00:28:40;3.80;99.90
45837;DHT22;31548;51.420;-0.040;2023-02-28T00:31:08;3.80;99.90
45837;DHT22;31548;51.420;-0.040;2023-02-28T00:33:35;3.70;99.90
45837;DHT22;31548;51.420;-0.040;2023-02-28T00:36:04;3.70;99.90
45837;DHT22;31548;51.420;-0.040;2023-02-28T00:38:32;3.70;99.90
45837;DHT22;31548;51.420;-0.040;2023-02-28T00:41:00;3.70;99.90
45837;DHT22;31548;51.420;-0.040;2023-02-28T00:43:33;3.60;99.90
45837;DHT22;31548;51.420;-0.040;2023-02-28T00:46:01;3.60;99.90
45837;DHT22;31548;51.420;-0.040;2023-02-28T00:48:30;3.60;99.90
45837;DHT22;31548;51.420;-0.040;2023-02-28T00:50:57;3.60;99.90
45837;DHT22;31548;51.420;-0.040;2023-02-28T00:53:25;3.60;99.90
45837;DHT22;31548;51.420;-0.040;2023-02-28T00:55:52;3.50;99.90
45837;DHT22;31548;51.420;-0.040;2023-02-28T00:58:20;3.50;99.90
45837;DHT22;31548;51.420;-0.040;2023-02-28T01:00:47;3.50;99.90
45837;DHT22;31548;51.420;-0.040;2023-02-28T01:03:17;3.50;99.90
45837;DHT22;31548;51.420;-0.040;2023-02-28T01:05:45;3.50;99.90
45837;DHT22;31548;51.420;-0.040;2023-02-28T01:08:13;3.50;99.90
45837;DHT22;31548;51.420;-0.040;2023-02-28T01:10:41;3.50;99.90
45837;DHT22;31548;51.420;-0.040;2023-02-28T01:13:10;3.50;99.90
45837;DHT22;31548;51.420;-0.040;2023-02-28T01:15:39;3.50;99.90
45837;DHT22;31548;51.420;-0.040;2023-02-28T01:18:08;3.50;99.90
45837;DHT22;31548;51.420;-0.040;2023-02-28T01:20:38;3.50;99.90
45837;DHT22;31548;51.420;-0.040;2023-02-28T01:23:06;3.50;99.90
45837;DHT22;31548;51.420;-0.040;2023-02-28T01:25:37;3.40;99.90
45837;DHT22;31548;51.420;-0.040;2023-02-28T01:28:09;3.40;99.90
45837;DHT22;31548;51.420;-0.040;2023-02-28T01:30:36;3.40;99.90
45837;DHT22;31548;51.420;-0.040;2023-02-28T01:33:05;3.40;99.90
45837;DHT22;31548;51.420;-0.040;2023-02-28T01:35:36;3.40;99.90
45837;DHT22;31548;51.420;-0.040;2023-02-28T01:38:03;3.40;99.90
45837;DHT22;31548;51.420;-0.040;2023-02-28T01:40:47;3.30;99.90
45837;DHT22;31548;51.420;-0.040;2023-02-28T01:43:24;3.30;99.90
45837;DHT22;31548;51.420;-0.040;2023-02-28T01:45:56;3.30;99.90
45837;DHT22;31548;51.420;-0.040;2023-02-28T01:48:31;3.20;99.90
45837;DHT22;31548;51.420;-0.040;2023-02-28T01:51:13;3.20;99.90
45837;DHT22;31548;51.420;-0.040;2023-02-28T01:53:45;3.20;99.90
45837;DHT22;31548;51.420;-0.040;2023-02-28T01:56:19;3.20;99.90
45837;DHT22;31548;51.420;-0.040;2023-02-28T01:58:51;3.10;99.90
45837;DHT22;31548;51.420;-0.040;2023-02-28T02:01:20;3.00;99.90
45837;DHT22;31548;51.420;-0.040;2023-02-28T02:03:58;3.00;99.90
45837;DHT22;31548;51.420;-0.040;2023-02-28T02:06:46;3.00;99.90
45837;DHT22;31548;51.420;-0.040;2023-02-28T02:09:14;3.00;99.90
45837;DHT22;31548;51.420;-0.040;2023-02-28T02:11:43;2.90;99.90
45837;DHT22;31548;51.420;-0.040;2023-02-28T02:14:43;2.90;99.90
45837;DHT22;31548;51.420;-0.040;2023-02-28T02:17:26;2.90;99.90
45837;DHT22;31548;51.420;-0.040;2023-02-28T02:20:32;3.00;99.90
45837;DHT22;31548;51.420;-0.040;2023-02-28T02:25:53;2.90;99.90
45837;DHT22;31548;51.420;-0.040;2023-02-28T02:31:33;2.90;99.90
45837;DHT22;31548;51.420;-0.040;2023-02-28T02:34:26;2.80;99.90
45837;DHT22;31548;51.420;-0.040;2023-02-28T02:39:41;2.80;99.90
45837;DHT22;31548;51.420;-0.040;2023-02-28T02:42:23;2.80;99.90
45837;DHT22;31548;51.420;-0.040;2023-02-28T02:45:00;2.80;99.90
45837;DHT22;31548;51.420;-0.040;2023-02-28T02:47:30;2.80;99.90
45837;DHT22;31548;51.420;-0.040;2023-02-28T02:50:02;2.80;99.90
45837;DHT22;31548;51.420;-0.040;2023-02-28T02:52:42;2.70;99.90
45837;DHT22;31548;51.420;-0.040;2023-02-28T02:55:14;2.80;99.90
45837;DHT22;31548;51.420;-0.040;2023-02-28T02:57:50;2.80;99.90
45837;DHT22;31548;51.420;-0.040;2023-02-28T03:00:22;2.80;99.90
45837;DHT22;31548;51.420;-0.040;2023-02-28T03:02:52;2.80;99.90
45837;DHT22;31548;51.420;-0.040;2023-02-28T03:05:27;2.80;99.90
45837;DHT22;31548;51.420;-0.040;2023-02-28T03:07:56;2.80;99.90
45837;DHT22;31548;51.420;-0.040;2023-02-28T03:10:50;2.80;99.90
45837;DHT22;31548;51.420;-0.040;2023-02-28T03:27:40;2.60;99.90
45837;DHT22;31548;51.420;-0.040;2023-02-28T03:30:21;2.60;99.90
45837;DHT22;31548;51.420;-0.040;2023-02-28T03:32:57;2.60;99.90
45837;DHT22;31548;51.420;-0.040;2023-02-28T03:35:32;2.50;99.90
45837;DHT22;31548;51.420;-0.040;2023-02-28T03:38:05;2.50;99.90
45837;DHT22;31548;51.420;-0.040;2023-02-28T03:40:35;2.50;99.90
45837;DHT22;31548;51.420;-0.040;2023-02-28T03:43:10;2.50;99.90
45837;DHT22;31548;51.420;-0.040;2023-02-28T03:45:40;2.50;99.90
45837;DHT22;31548;51.420;-0.040;2023-02-28T03:48:27;2.50;99.90
45837;DHT22;31548;51.420;-0.040;2023-02-28T03:50:58;2.50;99.90
45837;DHT22;31548;51.420;-0.040;2023-02-28T03:53:37;2.50;99.90
45837;DHT22;31548;51.420;-0.040;2023-02-28T03:56:12;2.50;99.90
45837;DHT22;31548;51.420;-0.040;2023-02-28T04:01:41;2.50;99.90
45837;DHT22;31548;51.420;-0.040;2023-02-28T04:04:10;2.50;99.90
45837;DHT22;31548;51.420;-0.040;2023-02-28T04:06:39;2.50;99.90
45837;DHT22;31548;51.420;-0.040;2023-02-28T04:09:09;2.50;99.90
45837;DHT22;31548;51.420;-0.040;2023-02-28T04:11:41;2.50;99.90
45837;DHT22;31548;51.420;-0.040;2023-02-28T04:14:10;2.50;99.90
45837;DHT22;31548;51.420;-0.040;2023-02-28T04:16:39;2.50;99.90
45837;DHT22;31548;51.420;-0.040;2023-02-28T04:19:09;2.40;99.90
45837;DHT22;31548;51.420;-0.040;2023-02-28T04:21:42;2.40;99.90
45837;DHT22;31548;51.420;-0.040;2023-02-28T04:24:12;2.50;99.90
45837;DHT22;31548;51.420;-0.040;2023-02-28T04:26:45;2.40;99.90
45837;DHT22;31548;51.420;-0.040;2023-02-28T04:29:17;2.40;99.90
45837;DHT22;31548;51.420;-0.040;2023-02-28T04:31:45;2.40;99.90
45837;DHT22;31548;51.420;-0.040;2023-02-28T04:34:13;2.40;99.90
45837;DHT22;31548;51.420;-0.040;2023-02-28T04:36:40;2.40;99.90
45837;DHT22;31548;51.420;-0.040;2023-02-28T04:39:08;2.40;99.90
45837;DHT22;31548;51.420;-0.040;2023-02-28T04:41:36;2.30;99.90
45837;DHT22;31548;51.420;-0.040;2023-02-28T04:44:04;2.30;99.90
45837;DHT22;31548;51.420;-0.040;2023-02-28T04:46:31;2.30;99.90
45837;DHT22;31548;51.420;-0.040;2023-02-28T04:48:58;2.30;99.90
45837;DHT22;31548;51.420;-0.040;2023-02-28T04:51:26;2.30;99.90
45837;DHT22;31548;51.420;-0.040;2023-02-28T04:53:54;2.20;99.90
45837;DHT22;31548;51.420;-0.040;2023-02-28T04:56:22;2.20;99.90
45837;DHT22;31548;51.420;-0.040;2023-02-28T04:58:49;2.20;99.90
45837;DHT22;31548;51.420;-0.040;2023-02-28T05:01:21;2.20;99.90
45837;DHT22;31548;51.420;-0.040;2023-02-28T05:03:50;2.20;99.90
45837;DHT22;31548;51.420;-0.040;2023-02-28T05:06:18;2.20;99.90
45837;DHT22;31548;51.420;-0.040;2023-02-28T05:08:47;2.10;99.90
45837;DHT22;31548;51.420;-0.040;2023-02-28T05:11:18;2.10;99.90
45837;DHT22;31548;51.420;-0.040;2023-02-28T05:13:46;2.20;99.90
45837;DHT22;31548;51.420;-0.040;2023-02-28T05:16:14;2.10;99.90
45837;DHT22;31548;51.420;-0.040;2023-02-28T05:18:42;2.10;99.90
45837;DHT22;31548;51.420;-0.040;2023-02-28T05:21:30;2.10;99.90
45837;DHT22;31548;51.420;-0.040;2023-02-28T05:24:00;2.10;99.90
45837;DHT22;31548;51.420;-0.040;2023-02-28T05:26:29;2.10;99.90
45837;DHT22;31548;51.420;-0.040;2023-02-28T05:28:57;2.10;99.90
45837;DHT22;31548;51.420;-0.040;2023-02-28T05:31:25;2.10;99.90
45837;DHT22;31548;51.420;-0.040;2023-02-28T05:33:52;2.10;99.90
45837;DHT22;31548;51.420;-0.040;2023-02-28T05:36:20;2.10;99.90
45837;DHT22;31548;51.420;-0.040;2023-02-28T05:38:49;2.10;99.90
45837;DHT22;31548;51.420;-0.040;2023-02-28T05:41:17;2.10;99.90
45837;DHT22;31548;51.420;-0.040;2023-02-28T05:43:47;2.10;99.90
45837;DHT22;31548;51.420;-0.040;2023-02-28T05:46:14;2.10;99.90
45837;DHT22;31548;51.420;-0.040;2023-02-28T05:48:42;2.10;99.90
45837;DHT22;31548;51.420;-0.040;2023-02-28T05:51:12;2.10;99.90
45837;DHT22;31548;51.420;-0.040;2023-02-28T05:53:40;2.00;99.90
45837;DHT22;31548;51.420;-0.040;2023-02-28T05:56:07;2.10;99.90
45837;DHT22;31548;51.420;-0.040;2023-02-28T05:58:34;2.00;99.90
45837;DHT22;31548;51.420;-0.040;2023-02-28T06:01:41;2.10;99.90
45837;DHT22;31548;51.420;-0.040;2023-02-28T06:04:09;2.20;99.90
45837;DHT22;31548;51.420;-0.040;2023-02-28T06:06:55;2.20;99.90
45837;DHT22;31548;51.420;-0.040;2023-02-28T06:09:24;2.30;99.90
45837;DHT22;31548;51.420;-0.040;2023-02-28T06:11:52;2.30;99.90
45837;DHT22;31548;51.420;-0.040;2023-02-28T06:14:20;2.30;99.90
45837;DHT22;31548;51.420;-0.040;2023-02-28T06:16:47;2.40;99.90
45837;DHT22;31548;51.420;-0.040;2023-02-28T06:19:15;2.40;99.90
45837;DHT22;31548;51.420;-0.040;2023-02-28T06:21:43;2.40;99.90
45837;DHT22;31548;51.420;-0.040;2023-02-28T06:24:10;2.50;99.90
45837;DHT22;31548;51.420;-0.040;2023-02-28T06:26:38;2.50;99.90
45837;DHT22;31548;51.420;-0.040;2023-02-28T06:29:05;2.50;99.90
45837;DHT22;31548;51.420;-0.040;2023-02-28T06:31:33;2.50;99.90
45837;DHT22;31548;51.420;-0.040;2023-02-28T06:34:00;2.60;99.90
45837;DHT22;31548;51.420;-0.040;2023-02-28T06:36:28;2.50;99.90
45837;DHT22;31548;51.420;-0.040;2023-02-28T06:38:55;2.60;99.90
45837;DHT22;31548;51.420;-0.040;2023-02-28T06:41:26;2.60;99.90
45837;DHT22;31548;51.420;-0.040;2023-02-28T06:43:55;2.60;99.90
45837;DHT22;31548;51.420;-0.040;2023-02-28T06:46:23;2.60;99.90
45837;DHT22;31548;51.420;-0.040;2023-02-28T06:48:50;2.60;99.90
45837;DHT22;31548;51.420;-0.040;2023-02-28T06:51:19;2.60;99.90
45837;DHT22;31548;51.420;-0.040;2023-02-28T06:53:51;2.60;99.90
45837;DHT22;31548;51.420;-0.040;2023-02-28T06:56:18;2.70;99.90
45837;DHT22;31548;51.420;-0.040;2023-02-28T06:58:50;2.70;99.90
45837;DHT22;31548;51.420;-0.040;2023-02-28T07:01:20;2.70;99.90
45837;DHT22;31548;51.420;-0.040;2023-02-28T07:03:50;2.70;99.90
45837;DHT22;31548;51.420;-0.040;2023-02-28T07:06:20;2.70;99.90
45837;DHT22;31548;51.420;-0.040;2023-02-28T07:08:50;2.80;99.90
45837;DHT22;31548;51.420;-0.040;2023-02-28T07:11:19;2.80;99.90
45837;DHT22;31548;51.420;-0.040;2023-02-28T07:13:47;2.80;99.90
45837;DHT22;31548;51.420;-0.040;2023-02-28T07:16:14;2.80;99.90
45837;DHT22;31548;51.420;-0.040;2023-02-28T07:18:42;2.80;99.90
45837;DHT22;31548;51.420;-0.040;2023-02-28T07:21:10;2.80;99.90
45837;DHT22;31548;51.420;-0.040;2023-02-28T07:23:39;2.90;99.90
45837;DHT22;31548;51.420;-0.040;2023-02-28T07:26:07;2.90;99.90
45837;DHT22;31548;51.420;-0.040;2023-02-28T07:28:38;2.90;99.90
45837;DHT22;31548;51.420;-0.040;2023-02-28T07:31:06;3.00;99.90
45837;DHT22;31548;51.420;-0.040;2023-02-28T07:33:34;3.00;99.90
45837;DHT22;31548;51.420;-0.040;2023-02-28T07:36:07;3.10;99.90
45837;DHT22;31548;51.420;-0.040;2023-02-28T07:38:35;3.10;99.90
45837;DHT22;31548;51.420;-0.040;2023-02-28T07:41:03;3.10;99.90
45837;DHT22;31548;51.420;-0.040;2023-02-28T07:43:35;3.10;99.90
45837;DHT22;31548;51.420;-0.040;2023-02-28T07:46:08;3.20;99.90
45837;DHT22;31548;51.420;-0.040;2023-02-28T07:48:36;3.20;99.90
45837;DHT22;31548;51.420;-0.040;2023-02-28T07:51:03;3.30;99.90
45837;DHT22;31548;51.420;-0.040;2023-02-28T07:53:31;3.30;99.90
45837;DHT22;31548;51.420;-0.040;2023-02-28T07:56:00;3.40;99.90
45837;DHT22;31548;51.420;-0.040;2023-02-28T07:58:28;3.40;99.90
45837;DHT22;31548;51.420;-0.040;2023-02-28T08:00:56;3.50;99.90
45837;DHT22;31548;51.420;-0.040;2023-02-28T08:03:24;3.50;99.90
45837;DHT22;31548;51.420;-0.040;2023-02-28T08:05:51;3.50;99.90
45837;DHT22;31548;51.420;-0.040;2023-02-28T08:08:19;3.60;99.90
45837;DHT22;31548;51.420;-0.040;2023-02-28T08:10:47;3.70;99.90
45837;DHT22;31548;51.420;-0.040;2023-02-28T08:13:14;3.70;99.90
45837;DHT22;31548;51.420;-0.040;2023-02-28T08:15:42;3.80;99.90
45837;DHT22;31548;51.420;-0.040;2023-02-28T08:18:09;3.80;99.90
45837;DHT22;31548;51.420;-0.040;2023-02-28T08:20:37;4.00;99.90
45837;DHT22;31548;51.420;-0.040;2023-02-28T08:23:04;4.00;99.90
45837;DHT22;31548;51.420;-0.040;2023-02-28T08:25:31;4.10;99.90
45837;DHT22;31548;51.420;-0.040;2023-02-28T08:27:58;4.10;99.90
45837;DHT22;31548;51.420;-0.040;2023-02-28T08:30:26;4.20;99.90
45837;DHT22;31548;51.420;-0.040;2023-02-28T08:32:53;4.20;99.90
45837;DHT22;31548;51.420;-0.040;2023-02-28T08:35:22;4.20;99.90
45837;DHT22;31548;51.420;-0.040;2023-02-28T08:37:50;4.30;99.90
45837;DHT22;31548;51.420;-0.040;2023-02-28T08:40:17;4.40;99.90
45837;DHT22;31548;51.420;-0.040;2023-02-28T08:42:47;4.40;99.90
45837;DHT22;31548;51.420;-0.040;2023-02-28T08:45:15;4.50;99.90
45837;DHT22;31548;51.420;-0.040;2023-02-28T08:47:42;4.60;99.90
45837;DHT22;31548;51.420;-0.040;2023-02-28T08:50:09;4.60;99.90
45837;DHT22;31548;51.420;-0.040;2023-02-28T08:52:37;4.60;99.90
45837;DHT22;31548;51.420;-0.040;2023-02-28T08:55:05;4.70;99.90
45837;DHT22;31548;51.420;-0.040;2023-02-28T08:57:33;4.80;99.90
45837;DHT22;31548;51.420;-0.040;2023-02-28T09:00:00;4.90;99.90
45837;DHT22;31548;51.420;-0.040;2023-02-28T09:02:31;4.90;99.90
45837;DHT22;31548;51.420;-0.040;2023-02-28T09:04:58;5.10;99.90
45837;DHT22;31548;51.420;-0.040;2023-02-28T09:07:26;5.10;99.90
45837;DHT22;31548;51.420;-0.040;2023-02-28T09:09:53;5.20;99.90
45837;DHT22;31548;51.420;-0.040;2023-02-28T09:12:23;5.20;99.90
45837;DHT22;31548;51.420;-0.040;2023-02-28T09:14:52;5.20;99.90
45837;DHT22;31548;51.420;-0.040;2023-02-28T09:17:19;5.30;99.90
45837;DHT22;31548;51.420;-0.040;2023-02-28T09:19:50;5.30;99.90
45837;DHT22;31548;51.420;-0.040;2023-02-28T09:22:17;5.40;99.90
45837;DHT22;31548;51.420;-0.040;2023-02-28T09:24:44;5.40;99.90
45837;DHT22;31548;51.420;-0.040;2023-02-28T09:27:12;5.60;99.90
45837;DHT22;31548;51.420;-0.040;2023-02-28T09:29:39;5.70;99.90
45837;DHT22;31548;51.420;-0.040;2023-02-28T09:32:06;5.80;99.90
45837;DHT22;31548;51.420;-0.040;2023-02-28T09:34:34;5.80;99.90
45837;DHT22;31548;51.420;-0.040;2023-02-28T09:37:04;5.80;99.90
45837;DHT22;31548;51.420;-0.040;2023-02-28T09:39:31;5.80;99.90
45837;DHT22;31548;51.420;-0.040;2023-02-28T09:41:59;5.90;99.90
45837;DHT22;31548;51.420;-0.040;2023-02-28T09:44:36;5.90;99.90
45837;DHT22;31548;51.420;-0.040;2023-02-28T09:47:20;5.90;99.90
45837;DHT22;31548;51.420;-0.040;2023-02-28T09:49:48;6.00;99.90
45837;DHT22;31548;51.420;-0.040;2023-02-28T09:52:23;6.00;99.90
45837;DHT22;31548;51.420;-0.040;2023-02-28T09:54:52;6.10;99.90
45837;DHT22;31548;51.420;-0.040;2023-02-28T09:57:33;6.10;99.90
45837;DHT22;31548;51.420;-0.040;2023-02-28T10:00:22;6.10;99.90
45837;DHT22;31548;51.420;-0.040;2023-02-28T10:05:51;6.20;99.90
45837;DHT22;31548;51.420;-0.040;2023-02-28T10:08:28;6.30;99.90
45837;DHT22;31548;51.420;-0.040;2023-02-28T10:11:06;6.20;99.90
45837;DHT22;31548;51.420;-0.040;2023-02-28T10:22:08;6.40;99.90
45837;DHT22;31548;51.420;-0.040;2023-02-28T10:27:17;6.40;99.90
45837;DHT22;31548;51.420;-0.040;2023-02-28T10:29:53;6.50;99.90
45837;DHT22;31548;51.420;-0.040;2023-02-28T10:32:27;6.50;99.90
45837;DHT22;31548;51.420;-0.040;2023-02-28T10:34:58;6.70;99.90
45837;DHT22;31548;51.420;-0.040;2023-02-28T10:37:27;6.70;99.90
45837;DHT22;31548;51.420;-0.040;2023-02-28T10:39:55;6.70;99.90
45837;DHT22;31548;51.420;-0.040;2023-02-28T10:42:28;6.70;99.90
45837;DHT22;31548;51.420;-0.040;2023-02-28T10:45:12;6.70;99.90
45837;DHT22;31548;51.420;-0.040;2023-02-28T10:53:38;6.60;99.90
45837;DHT22;31548;51.420;-0.040;2023-02-28T10:56:28;6.60;99.90
45837;DHT22;31548;51.420;-0.040;2023-02-28T10:59:11;6.50;99.90
45837;DHT22;31548;51.420;-0.040;2023-02-28T11:01:47;6.50;99.90
45837;DHT22;31548;51.420;-0.040;2023-02-28T11:09:39;6.40;99.90
45837;DHT22;31548;51.420;-0.040;2023-02-28T11:12:19;6.50;99.90
45837;DHT22;31548;51.420;-0.040;2023-02-28T11:14:50;6.60;99.90
45837;DHT22;31548;51.420;-0.040;2023-02-28T11:17:27;6.60;99.90
45837;DHT22;31548;51.420;-0.040;2023-02-28T11:20:06;6.60;99.90
45837;DHT22;31548;51.420;-0.040;2023-02-28T11:22:37;6.50;99.90
45837;DHT22;31548;51.420;-0.040;2023-02-28T11:25:16;6.50;99.90
45837;DHT22;31548;51.420;-0.040;2023-02-28T11:27:49;6.50;99.90
45837;DHT22;31548;51.420;-0.040;2023-02-28T11:33:23;6.70;99.90
45837;DHT22;31548;51.420;-0.040;2023-02-28T11:35:51;6.60;99.90
45837;DHT22;31548;51.420;-0.040;2023-02-28T11:38:19;6.70;99.90
45837;DHT22;31548;51.420;-0.040;2023-02-28T11:51:28;6.70;99.90
45837;DHT22;31548;51.420;-0.040;2023-02-28T11:56:47;6.60;99.90
45837;DHT22;31548;51.420;-0.040;2023-02-28T11:59:30;6.60;99.90
45837;DHT22;31548;51.420;-0.040;2023-02-28T12:10:25;6.70;99.90
45837;DHT22;31548;51.420;-0.040;2023-02-28T12:18:30;6.70;99.90
45837;DHT22;31548;51.420;-0.040;2023-02-28T12:21:19;6.70;99.90
45837;DHT22;31548;51.420;-0.040;2023-02-28T12:23:56;6.70;99.90
45837;DHT22;31548;51.420;-0.040;2023-02-28T12:26:39;6.80;99.90
45837;DHT22;31548;51.420;-0.040;2023-02-28T12:29:17;6.80;99.90
45837;DHT22;31548;51.420;-0.040;2023-02-28T12:32:06;6.90;99.90
45837;DHT22;31548;51.420;-0.040;2023-02-28T12:37:15;7.10;99.90
45837;DHT22;31548;51.420;-0.040;2023-02-28T12:39:48;7.10;99.90
45837;DHT22;31548;51.420;-0.040;2023-02-28T12:42:27;7.10;99.90
45837;DHT22;31548;51.420;-0.040;2023-02-28T12:44:59;7.20;99.90
45837;DHT22;31548;51.420;-0.040;2023-02-28T12:47:29;7.10;99.90
45837;DHT22;31548;51.420;-0.040;2023-02-28T12:50:05;7.10;99.90
45837;DHT22;31548;51.420;-0.040;2023-02-28T12:53:06;7.10;99.90
45837;DHT22;31548;51.420;-0.040;2023-02-28T12:58:45;7.10;99.90
45837;DHT22;31548;51.420;-0.040;2023-02-28T13:09:37;7.10;99.90
45837;DHT22;31548;51.420;-0.040;2023-02-28T13:12:15;7.00;99.90
45837;DHT22;31548;51.420;-0.040;2023-02-28T13:14:43;7.00;99.90
45837;DHT22;31548;51.420;-0.040;2023-02-28T13:17:14;7.00;99.90
45837;DHT22;31548;51.420;-0.040;2023-02-28T13:19:57;7.10;99.90
45837;DHT22;31548;51.420;-0.040;2023-02-28T13:24:54;7.10;99.90
45837;DHT22;31548;51.420;-0.040;2023-02-28T13:27:33;7.10;99.90
45837;DHT22;31548;51.420;-0.040;2023-02-28T13:30:01;7.00;99.90
45837;DHT22;31548;51.420;-0.040;2023-02-28T13:34:04;7.10;99.90
45837;DHT22;31548;51.420;-0.040;2023-02-28T13:38:46;7.10;99.90
45837;DHT22;31548;51.420;-0.040;2023-02-28T13:41:42;7.10;99.90
45837;DHT22;31548;51.420;-0.040;2023-02-28T13:44:20;7.10;99.90
45837;DHT22;31548;51.420;-0.040;2023-02-28T13:52:22;7.20;99.90
45837;DHT22;31548;51.420;-0.040;2023-02-28T14:03:30;7.20;99.90
45837;DHT22;31548;51.420;-0.040;2023-02-28T14:09:03;7.20;99.90
45837;DHT22;31548;51.420;-0.040;2023-02-28T14:11:38;7.30;99.90
45837;DHT22;31548;51.420;-0.040;2023-02-28T14:14:07;7.20;99.90
45837;DHT22;31548;51.420;-0.040;2023-02-28T14:16:40;7.30;99.90
45837;DHT22;31548;51.420;-0.040;2023-02-28T14:19:27;7.20;99.90
45837;DHT22;31548;51.420;-0.040;2023-02-28T14:27:36;7.20;99.90
45837;DHT22;31548;51.420;-0.040;2023-02-28T14:36:14;7.20;99.90
45837;DHT22;31548;51.420;-0.040;2023-02-28T14:38:47;7.20;99.90
45837;DHT22;31548;51.420;-0.040;2023-02-28T14:41:29;7.20;99.90
45837;DHT22;31548;51.420;-0.040;2023-02-28T14:44:01;7.20;99.90
45837;DHT22;31548;51.420;-0.040;2023-02-28T14:46:36;7.20;99.90
45837;DHT22;31548;51.420;-0.040;2023-02-28T14:49:07;7.20;99.90
45837;DHT22;31548;51.420;-0.040;2023-02-28T14:51:39;7.20;99.90
45837;DHT22;31548;51.420;-0.040;2023-02-28T14:54:06;7.30;99.90
45837;DHT22;31548;51.420;-0.040;2023-02-28T14:56:37;7.30;99.90
45837;DHT22;31548;51.420;-0.040;2023-02-28T14:59:17;7.30;99.90
45837;DHT22;31548;51.420;-0.040;2023-02-28T15:01:50;7.30;99.90
45837;DHT22;31548;51.420;-0.040;2023-02-28T15:04:26;7.30;99.90
45837;DHT22;31548;51.420;-0.040;2023-02-28T15:07:10;7.30;99.90
45837;DHT22;31548;51.420;-0.040;2023-02-28T15:09:38;7.30;99.90
45837;DHT22;31548;51.420;-0.040;2023-02-28T15:12:05;7.20;99.90
45837;DHT22;31548;51.420;-0.040;2023-02-28T15:14:34;7.30;99.90
45837;DHT22;31548;51.420;-0.040;2023-02-28T15:17:14;7.20;99.90
45837;DHT22;31548;51.420;-0.040;2023-02-28T15:19:51;7.20;99.90
45837;DHT22;31548;51.420;-0.040;2023-02-28T15:22:31;7.20;99.90
45837;DHT22;31548;51.420;-0.040;2023-02-28T15:25:04;7.20;99.90
45837;DHT22;31548;51.420;-0.040;2023-02-28T15:27:33;7.20;99.90
45837;DHT22;31548;51.420;-0.040;2023-02-28T15:30:08;7.20;99.90
45837;DHT22;31548;51.420;-0.040;2023-02-28T15:32:41;7.20;99.90
45837;DHT22;31548;51.420;-0.040;2023-02-28T15:35:29;7.20;99.90
45837;DHT22;31548;51.420;-0.040;2023-02-28T15:38:18;7.20;99.90
45837;DHT22;31548;51.420;-0.040;2023-02-28T15:40:56;7.20;99.90
45837;DHT22;31548;51.420;-0.040;2023-02-28T15:43:31;7.20;99.90
45837;DHT22;31548;51.420;-0.040;2023-02-28T15:46:11;7.10;99.90
45837;DHT22;31548;51.420;-0.040;2023-02-28T15:48:53;7.10;99.90
45837;DHT22;31548;51.420;-0.040;2023-02-28T15:51:33;7.00;99.90
45837;DHT22;31548;51.420;-0.040;2023-02-28T15:54:12;6.90;99.90
45837;DHT22;31548;51.420;-0.040;2023-02-28T15:56:46;6.90;99.90
45837;DHT22;31548;51.420;-0.040;2023-02-28T15:59:18;6.80;99.90
45837;DHT22;31548;51.420;-0.040;2023-02-28T16:01:46;6.80;99.90
45837;DHT22;31548;51.420;-0.040;2023-02-28T16:04:19;6.80;99.90
45837;DHT22;31548;51.420;-0.040;2023-02-28T16:07:04;6.80;99.90
45837;DHT22;31548;51.420;-0.040;2023-02-28T16:09:32;6.90;99.90
45837;DHT22;31548;51.420;-0.040;2023-02-28T16:12:02;6.90;99.90
45837;DHT22;31548;51.420;-0.040;2023-02-28T16:14:31;6.90;99.90
45837;DHT22;31548;51.420;-0.040;2023-02-28T16:17:06;6.90;99.90
45837;DHT22;31548;51.420;-0.040;2023-02-28T16:19:35;7.00;99.90
45837;DHT22;31548;51.420;-0.040;2023-02-28T16:22:03;7.00;99.90
45837;DHT22;31548;51.420;-0.040;2023-02-28T16:24:30;6.90;99.90
45837;DHT22;31548;51.420;-0.040;2023-02-28T16:26:58;7.00;99.90
45837;DHT22;31548;51.420;-0.040;2023-02-28T16:29:34;7.00;99.90
45837;DHT22;31548;51.420;-0.040;2023-02-28T16:32:05;6.90;99.90
45837;DHT22;31548;51.420;-0.040;2023-02-28T16:34:32;7.00;99.90
45837;DHT22;31548;51.420;-0.040;2023-02-28T16:37:00;7.00;99.90
45837;DHT22;31548;51.420;-0.040;2023-02-28T16:39:27;7.00;99.90
45837;DHT22;31548;51.420;-0.040;2023-02-28T16:41:54;7.00;99.90
45837;DHT22;31548;51.420;-0.040;2023-02-28T16:44:31;7.00;99.90
45837;DHT22;31548;51.420;-0.040;2023-02-28T16:47:00;7.00;99.90
45837;DHT22;31548;51.420;-0.040;2023-02-28T16:49:27;7.00;99.90
45837;DHT22;31548;51.420;-0.040;2023-02-28T16:51:55;7.00;99.90
45837;DHT22;31548;51.420;-0.040;2023-02-28T16:54:22;7.00;99.90
45837;DHT22;31548;51.420;-0.040;2023-02-28T16:56:50;7.00;99.90
45837;DHT22;31548;51.420;-0.040;2023-02-28T16:59:23;7.00;99.90
45837;DHT22;31548;51.420;-0.040;2023-02-28T17:01:51;7.00;99.90
45837;DHT22;31548;51.420;-0.040;2023-02-28T17:04:19;7.00;99.90
45837;DHT22;31548;51.420;-0.040;2023-02-28T17:06:47;7.00;99.90
45837;DHT22;31548;51.420;-0.040;2023-02-28T17:09:18;7.00;99.90
45837;DHT22;31548;51.420;-0.040;2023-02-28T17:11:46;7.00;99.90
45837;DHT22;31548;51.420;-0.040;2023-02-28T17:14:14;7.00;99.90
45837;DHT22;31548;51.420;-0.040;2023-02-28T17:16:42;7.00;99.90
45837;DHT22;31548;51.420;-0.040;2023-02-28T17:19:15;7.00;99.90
45837;DHT22;31548;51.420;-0.040;2023-02-28T17:21:43;7.00;99.90
45837;DHT22;31548;51.420;-0.040;2023-02-28T17:24:11;7.00;99.90
45837;DHT22;31548;51.420;-0.040;2023-02-28T17:26:56;7.00;99.90
45837;DHT22;31548;51.420;-0.040;2023-02-28T17:29:23;7.00;99.90
45837;DHT22;31548;51.420;-0.040;2023-02-28T17:31:51;7.00;99.90
45837;DHT22;31548;51.420;-0.040;2023-02-28T17:34:19;7.00;99.90
45837;DHT22;31548;51.420;-0.040;2023-02-28T17:36:48;7.00;99.90
45837;DHT22;31548;51.420;-0.040;2023-02-28T17:39:18;6.90;99.90
45837;DHT22;31548;51.420;-0.040;2023-02-28T17:41:55;6.90;99.90
45837;DHT22;31548;51.420;-0.040;2023-02-28T17:44:24;6.90;99.90
45837;DHT22;31548;51.420;-0.040;2023-02-28T17:46:53;6.80;99.90
45837;DHT22;31548;51.420;-0.040;2023-02-28T17:49:22;6.80;99.90
45837;DHT22;31548;51.420;-0.040;2023-02-28T17:51:49;6.70;99.90
45837;DHT22;31548;51.420;-0.040;2023-02-28T17:54:17;6.70;99.90
45837;DHT22;31548;51.420;-0.040;2023-02-28T17:56:45;6.70;99.90
45837;DHT22;31548;51.420;-0.040;2023-02-28T17:59:13;6.70;99.90
45837;DHT22;31548;51.420;-0.040;2023-02-28T18:01:41;6.70;99.90
45837;DHT22;31548;51.420;-0.040;2023-02-28T18:04:08;6.70;99.90
45837;DHT22;31548;51.420;-0.040;2023-02-28T18:06:41;6.70;99.90
45837;DHT22;31548;51.420;-0.040;2023-02-28T18:09:21;6.70;99.90